sensor_id;sensor_type;location;lat;lon;timestamp;pressure;altitude;pressure_sealevel;temperature;humidity
9889;BME280;4983;42.112;24.738;2024-01-16T00:01:51;98417.63;;;2.57;67.94
9889;BME280;4983;42.112;24.738;2024-01-16T00:04:17;98417.63;;;2.57;67.92
9889;BME280;4983;42.112;24.738;2024-01-16T00:06:43;98414.09;;;2.66;67.41
9889;BME280;4983;42.112;24.738;2024-01-16T00:09:08;98414.44;;;2.71;67.86
9889;BME280;4983;42.112;24.738;2024-01-16T00:11:44;98409.53;;;2.68;68.03
9889;BME280;4983;42.112;24.738;2024-01-16T00:14:10;98406.28;;;2.66;67.22
9889;BME280;4983;42.112;24.738;2024-01-16T00:16:45;98409.03;;;2.64;67.56
9889;BME280;4983;42.112;24.738;2024-01-16T00:19:12;98425.81;;;2.62;67.56
9889;BME280;4983;42.112;24.738;2024-01-16T00:21:44;98426.03;;;2.51;67.63
9889;BME280;4983;42.112;24.738;2024-01-16T00:24:13;98426.63;;;2.37;68.25
9889;BME280;4983;42.112;24.738;2024-01-16T00:26:39;98419.47;;;2.39;67.85
9889;BME280;4983;42.112;24.738;2024-01-16T00:29:05;98421.97;;;2.23;68.85
9889;BME280;4983;42.112;24.738;2024-01-16T00:31:31;98423.88;;;2.21;69.23
9889;BME280;4983;42.112;24.738;2024-01-16T00:33:56;98437.25;;;2.26;68.74
9889;BME280;4983;42.112;24.738;2024-01-16T00:36:22;98425.59;;;2.30;68.78
9889;BME280;4983;42.112;24.738;2024-01-16T00:38:47;98427.88;;;2.33;68.39
9889;BME280;4983;42.112;24.738;2024-01-16T00:41:13;98442.25;;;2.37;68.15
9889;BME280;4983;42.112;24.738;2024-01-16T00:43:43;98440.38;;;2.29;68.63
9889;BME280;4983;42.112;24.738;2024-01-16T00:46:08;98436.97;;;2.29;68.76
9889;BME280;4983;42.112;24.738;2024-01-16T00:48:34;98428.09;;;2.39;68.12
9889;BME280;4983;42.112;24.738;2024-01-16T00:50:59;98413.75;;;2.35;67.75
9889;BME280;4983;42.112;24.738;2024-01-16T00:53:26;98413.53;;;2.29;68.08
9889;BME280;4983;42.112;24.738;2024-01-16T00:55:52;98415.19;;;2.30;68.22
9889;BME280;4983;42.112;24.738;2024-01-16T00:58:19;98426.09;;;2.33;68.22
9889;BME280;4983;42.112;24.738;2024-01-16T01:00:45;98409.16;;;2.29;68.65
9889;BME280;4983;42.112;24.738;2024-01-16T01:03:10;98410.13;;;2.28;68.22
9889;BME280;4983;42.112;24.738;2024-01-16T01:05:36;98406.53;;;2.29;68.57
9889;BME280;4983;42.112;24.738;2024-01-16T01:08:02;98399.84;;;2.27;68.54
9889;BME280;4983;42.112;24.738;2024-01-16T01:10:27;98403.59;;;2.24;68.23
9889;BME280;4983;42.112;24.738;2024-01-16T01:12:53;98400.16;;;2.24;67.89
9889;BME280;4983;42.112;24.738;2024-01-16T01:15:19;98392.69;;;2.29;68.14
9889;BME280;4983;42.112;24.738;2024-01-16T01:17:47;98377.31;;;2.18;67.46
9889;BME280;4983;42.112;24.738;2024-01-16T01:20:14;98383.97;;;2.12;67.25
9889;BME280;4983;42.112;24.738;2024-01-16T01:22:40;98406.78;;;2.01;68.27
9889;BME280;4983;42.112;24.738;2024-01-16T01:25:06;98393.13;;;1.81;68.75
9889;BME280;4983;42.112;24.738;2024-01-16T01:27:32;98372.31;;;1.81;69.13
9889;BME280;4983;42.112;24.738;2024-01-16T01:29:57;98371.47;;;1.73;69.09
9889;BME280;4983;42.112;24.738;2024-01-16T01:32:23;98366.47;;;1.62;70.03
9889;BME280;4983;42.112;24.738;2024-01-16T01:34:49;98376.13;;;1.69;69.34
9889;BME280;4983;42.112;24.738;2024-01-16T01:37:14;98346.47;;;1.62;69.86
9889;BME280;4983;42.112;24.738;2024-01-16T01:39:40;98368.47;;;1.68;69.75
9889;BME280;4983;42.112;24.738;2024-01-16T01:42:06;98371.06;;;1.68;69.80
9889;BME280;4983;42.112;24.738;2024-01-16T01:44:31;98363.72;;;1.63;69.34
9889;BME280;4983;42.112;24.738;2024-01-16T01:46:57;98359.03;;;1.67;69.69
9889;BME280;4983;42.112;24.738;2024-01-16T01:49:25;98366.78;;;1.59;69.78
9889;BME280;4983;42.112;24.738;2024-01-16T01:51:50;98375.16;;;1.53;70.05
9889;BME280;4983;42.112;24.738;2024-01-16T01:54:17;98372.66;;;1.43;70.06
9889;BME280;4983;42.112;24.738;2024-01-16T01:56:44;98381.84;;;1.38;70.77
9889;BME280;4983;42.112;24.738;2024-01-16T01:59:11;98385.41;;;1.37;71.48
9889;BME280;4983;42.112;24.738;2024-01-16T02:01:39;98374.28;;;1.44;71.03
9889;BME280;4983;42.112;24.738;2024-01-16T02:04:06;98384.81;;;1.43;71.60
9889;BME280;4983;42.112;24.738;2024-01-16T02:06:32;98372.88;;;1.50;70.98
9889;BME280;4983;42.112;24.738;2024-01-16T02:08:58;98342.03;;;1.37;71.01
9889;BME280;4983;42.112;24.738;2024-01-16T02:11:24;98374.34;;;1.52;71.07
9889;BME280;4983;42.112;24.738;2024-01-16T02:13:50;98383.56;;;1.47;71.13
9889;BME280;4983;42.112;24.738;2024-01-16T02:18:45;98368.25;;;1.61;70.59
9889;BME280;4983;42.112;24.738;2024-01-16T02:21:12;98378.59;;;1.71;69.70
9889;BME280;4983;42.112;24.738;2024-01-16T02:23:42;98391.75;;;1.69;69.76
9889;BME280;4983;42.112;24.738;2024-01-16T02:26:08;98393.50;;;1.69;69.89
9889;BME280;4983;42.112;24.738;2024-01-16T02:28:33;98401.78;;;1.64;70.13
9889;BME280;4983;42.112;24.738;2024-01-16T02:30:59;98396.94;;;1.52;70.06
9889;BME280;4983;42.112;24.738;2024-01-16T02:33:24;98402.38;;;1.41;69.99
9889;BME280;4983;42.112;24.738;2024-01-16T02:35:50;98391.84;;;1.33;70.24
9889;BME280;4983;42.112;24.738;2024-01-16T02:38:15;98398.25;;;1.21;71.30
9889;BME280;4983;42.112;24.738;2024-01-16T02:40:41;98413.00;;;1.20;71.78
9889;BME280;4983;42.112;24.738;2024-01-16T02:43:06;98408.34;;;1.24;71.28
9889;BME280;4983;42.112;24.738;2024-01-16T02:45:32;98405.06;;;1.22;71.41
9889;BME280;4983;42.112;24.738;2024-01-16T02:47:58;98402.03;;;1.26;71.82
9889;BME280;4983;42.112;24.738;2024-01-16T02:50:23;98387.50;;;1.33;71.48
9889;BME280;4983;42.112;24.738;2024-01-16T02:52:48;98388.00;;;1.37;71.23
9889;BME280;4983;42.112;24.738;2024-01-16T02:55:14;98389.38;;;1.41;71.24
9889;BME280;4983;42.112;24.738;2024-01-16T02:57:40;98403.31;;;1.40;70.78
9889;BME280;4983;42.112;24.738;2024-01-16T03:00:06;98401.97;;;1.36;70.97
9889;BME280;4983;42.112;24.738;2024-01-16T03:02:33;98403.59;;;1.37;70.97
9889;BME280;4983;42.112;24.738;2024-01-16T03:04:58;98392.75;;;1.24;71.09
9889;BME280;4983;42.112;24.738;2024-01-16T03:07:24;98407.09;;;1.28;71.26
9889;BME280;4983;42.112;24.738;2024-01-16T03:09:49;98405.31;;;1.28;71.59
9889;BME280;4983;42.112;24.738;2024-01-16T03:12:16;98404.69;;;1.17;71.93
9889;BME280;4983;42.112;24.738;2024-01-16T03:14:42;98406.91;;;1.12;71.97
9889;BME280;4983;42.112;24.738;2024-01-16T03:17:08;98398.91;;;0.96;71.91
9889;BME280;4983;42.112;24.738;2024-01-16T03:19:33;98394.47;;;0.79;72.74
9889;BME280;4983;42.112;24.738;2024-01-16T03:21:59;98420.69;;;0.85;72.43
9889;BME280;4983;42.112;24.738;2024-01-16T03:24:24;98411.03;;;0.78;72.70
9889;BME280;4983;42.112;24.738;2024-01-16T03:26:51;98409.78;;;0.82;72.81
9889;BME280;4983;42.112;24.738;2024-01-16T03:29:17;98406.50;;;0.80;72.55
9889;BME280;4983;42.112;24.738;2024-01-16T03:31:42;98400.06;;;0.84;72.51
9889;BME280;4983;42.112;24.738;2024-01-16T03:34:08;98412.47;;;0.90;72.54
9889;BME280;4983;42.112;24.738;2024-01-16T03:36:36;98411.50;;;1.00;72.03
9889;BME280;4983;42.112;24.738;2024-01-16T03:39:01;98417.19;;;1.04;71.59
9889;BME280;4983;42.112;24.738;2024-01-16T03:41:27;98437.91;;;0.96;71.43
9889;BME280;4983;42.112;24.738;2024-01-16T03:43:52;98435.91;;;0.80;72.12
9889;BME280;4983;42.112;24.738;2024-01-16T03:46:21;98436.59;;;0.73;72.66
9889;BME280;4983;42.112;24.738;2024-01-16T03:48:47;98440.91;;;0.55;73.34
9889;BME280;4983;42.112;24.738;2024-01-16T03:51:12;98456.06;;;0.59;72.89
9889;BME280;4983;42.112;24.738;2024-01-16T03:53:41;98447.84;;;0.64;72.63
9889;BME280;4983;42.112;24.738;2024-01-16T03:56:06;98459.72;;;0.66;73.03
9889;BME280;4983;42.112;24.738;2024-01-16T03:58:35;98450.19;;;0.67;72.97
9889;BME280;4983;42.112;24.738;2024-01-16T04:01:00;98458.31;;;0.81;72.20
9889;BME280;4983;42.112;24.738;2024-01-16T04:03:26;98467.72;;;0.92;71.63
9889;BME280;4983;42.112;24.738;2024-01-16T04:05:51;98468.97;;;0.88;72.01
9889;BME280;4983;42.112;24.738;2024-01-16T04:08:17;98474.03;;;0.89;71.87
9889;BME280;4983;42.112;24.738;2024-01-16T04:10:42;98470.50;;;0.81;72.38
9889;BME280;4983;42.112;24.738;2024-01-16T04:13:08;98489.34;;;0.83;72.36
9889;BME280;4983;42.112;24.738;2024-01-16T04:15:33;98498.75;;;0.93;72.40
9889;BME280;4983;42.112;24.738;2024-01-16T04:17:59;98511.16;;;0.99;72.06
9889;BME280;4983;42.112;24.738;2024-01-16T04:20:25;98502.81;;;1.05;71.74
9889;BME280;4983;42.112;24.738;2024-01-16T04:22:50;98505.28;;;1.07;71.71
9889;BME280;4983;42.112;24.738;2024-01-16T04:25:16;98506.91;;;1.08;72.16
9889;BME280;4983;42.112;24.738;2024-01-16T04:27:42;98499.19;;;1.16;72.13
9889;BME280;4983;42.112;24.738;2024-01-16T04:30:08;98500.44;;;1.21;72.13
9889;BME280;4983;42.112;24.738;2024-01-16T04:32:34;98517.41;;;1.16;72.71
9889;BME280;4983;42.112;24.738;2024-01-16T04:35:00;98514.50;;;1.19;72.67
9889;BME280;4983;42.112;24.738;2024-01-16T04:37:25;98505.78;;;1.20;72.90
9889;BME280;4983;42.112;24.738;2024-01-16T04:39:51;98514.13;;;1.14;72.32
9889;BME280;4983;42.112;24.738;2024-01-16T04:42:16;98529.50;;;1.34;72.08
9889;BME280;4983;42.112;24.738;2024-01-16T04:44:43;98544.97;;;1.36;71.61
9889;BME280;4983;42.112;24.738;2024-01-16T04:47:09;98547.88;;;1.23;71.85
9889;BME280;4983;42.112;24.738;2024-01-16T04:49:34;98530.69;;;1.13;72.16
9889;BME280;4983;42.112;24.738;2024-01-16T04:51:59;98547.69;;;1.07;72.27
9889;BME280;4983;42.112;24.738;2024-01-16T04:54:25;98550.56;;;1.04;73.04
9889;BME280;4983;42.112;24.738;2024-01-16T04:56:50;98557.50;;;1.13;72.78
9889;BME280;4983;42.112;24.738;2024-01-16T04:59:16;98547.38;;;1.10;72.88
9889;BME280;4983;42.112;24.738;2024-01-16T05:01:41;98559.25;;;1.49;77.73
9889;BME280;4983;42.112;24.738;2024-01-16T05:04:07;98564.31;;;1.60;75.12
9889;BME280;4983;42.112;24.738;2024-01-16T05:06:34;98577.00;;;1.63;72.25
9889;BME280;4983;42.112;24.738;2024-01-16T05:09:00;98579.19;;;1.68;72.06
9889;BME280;4983;42.112;24.738;2024-01-16T05:11:25;98584.94;;;1.71;71.51
9889;BME280;4983;42.112;24.738;2024-01-16T05:13:51;98587.38;;;1.73;71.90
9889;BME280;4983;42.112;24.738;2024-01-16T05:16:25;98594.84;;;1.58;71.20
9889;BME280;4983;42.112;24.738;2024-01-16T05:18:52;98594.31;;;1.45;74.89
9889;BME280;4983;42.112;24.738;2024-01-16T05:21:18;98595.69;;;1.76;82.99
9889;BME280;4983;42.112;24.738;2024-01-16T05:23:43;98595.19;;;1.73;71.65
9889;BME280;4983;42.112;24.738;2024-01-16T05:26:09;98603.06;;;1.54;71.29
9889;BME280;4983;42.112;24.738;2024-01-16T05:28:34;98617.63;;;1.37;71.52
9889;BME280;4983;42.112;24.738;2024-01-16T05:31:00;98619.56;;;1.26;72.55
9889;BME280;4983;42.112;24.738;2024-01-16T05:33:25;98636.00;;;1.26;71.78
9889;BME280;4983;42.112;24.738;2024-01-16T05:35:51;98638.47;;;1.18;72.51
9889;BME280;4983;42.112;24.738;2024-01-16T05:38:16;98646.13;;;1.20;72.90
9889;BME280;4983;42.112;24.738;2024-01-16T05:40:42;98652.00;;;1.22;73.32
9889;BME280;4983;42.112;24.738;2024-01-16T05:43:07;98670.06;;;1.23;72.86
9889;BME280;4983;42.112;24.738;2024-01-16T05:45:33;98661.44;;;1.23;73.18
9889;BME280;4983;42.112;24.738;2024-01-16T05:47:58;98666.50;;;1.24;73.38
9889;BME280;4983;42.112;24.738;2024-01-16T05:50:24;98676.63;;;1.27;73.29
9889;BME280;4983;42.112;24.738;2024-01-16T05:52:49;98690.16;;;1.31;72.88
9889;BME280;4983;42.112;24.738;2024-01-16T05:55:15;98692.47;;;1.24;72.85
9889;BME280;4983;42.112;24.738;2024-01-16T05:57:40;98710.97;;;1.31;73.35
9889;BME280;4983;42.112;24.738;2024-01-16T06:00:09;98718.88;;;1.39;73.46
9889;BME280;4983;42.112;24.738;2024-01-16T06:02:37;98714.63;;;1.47;72.42
9889;BME280;4983;42.112;24.738;2024-01-16T06:05:03;98706.69;;;1.49;72.85
9889;BME280;4983;42.112;24.738;2024-01-16T06:07:29;98705.31;;;1.54;72.59
9889;BME280;4983;42.112;24.738;2024-01-16T06:09:54;98708.16;;;1.61;72.48
9889;BME280;4983;42.112;24.738;2024-01-16T06:12:20;98708.13;;;1.70;72.42
9889;BME280;4983;42.112;24.738;2024-01-16T06:14:45;98712.75;;;1.86;72.68
9889;BME280;4983;42.112;24.738;2024-01-16T06:17:11;98713.50;;;2.05;72.25
9889;BME280;4983;42.112;24.738;2024-01-16T06:19:36;98725.84;;;2.30;71.90
9889;BME280;4983;42.112;24.738;2024-01-16T06:22:02;98739.31;;;2.53;71.56
9889;BME280;4983;42.112;24.738;2024-01-16T06:24:27;98739.94;;;2.82;72.09
9889;BME280;4983;42.112;24.738;2024-01-16T06:26:53;98747.78;;;3.17;73.05
9889;BME280;4983;42.112;24.738;2024-01-16T06:29:18;98753.97;;;3.51;73.22
9889;BME280;4983;42.112;24.738;2024-01-16T06:31:44;98752.44;;;3.92;72.52
9889;BME280;4983;42.112;24.738;2024-01-16T06:34:09;98766.09;;;4.45;71.42
9889;BME280;4983;42.112;24.738;2024-01-16T06:36:35;98771.31;;;4.78;70.28
9889;BME280;4983;42.112;24.738;2024-01-16T06:39:00;98773.66;;;5.05;69.59
9889;BME280;4983;42.112;24.738;2024-01-16T06:41:26;98770.78;;;5.48;68.05
9889;BME280;4983;42.112;24.738;2024-01-16T06:43:51;98783.88;;;5.96;66.84
9889;BME280;4983;42.112;24.738;2024-01-16T06:46:16;98793.97;;;6.32;65.29
9889;BME280;4983;42.112;24.738;2024-01-16T06:48:42;98805.06;;;6.50;65.35
9889;BME280;4983;42.112;24.738;2024-01-16T06:51:07;98804.19;;;6.65;64.54
9889;BME280;4983;42.112;24.738;2024-01-16T06:53:35;98811.50;;;6.78;64.76
9889;BME280;4983;42.112;24.738;2024-01-16T06:56:01;98814.88;;;6.94;63.88
9889;BME280;4983;42.112;24.738;2024-01-16T06:58:28;98826.31;;;7.09;62.57
9889;BME280;4983;42.112;24.738;2024-01-16T07:00:53;98835.75;;;7.18;62.91
9889;BME280;4983;42.112;24.738;2024-01-16T07:03:19;98847.03;;;7.27;62.58
9889;BME280;4983;42.112;24.738;2024-01-16T07:05:44;98839.34;;;7.25;63.38
9889;BME280;4983;42.112;24.738;2024-01-16T07:08:10;98865.69;;;7.40;61.68
9889;BME280;4983;42.112;24.738;2024-01-16T07:10:36;98872.50;;;7.49;61.62
9889;BME280;4983;42.112;24.738;2024-01-16T07:13:02;98875.16;;;7.49;62.79
9889;BME280;4983;42.112;24.738;2024-01-16T07:15:27;98886.59;;;7.56;61.82
9889;BME280;4983;42.112;24.738;2024-01-16T07:17:53;98890.69;;;7.58;62.60
9889;BME280;4983;42.112;24.738;2024-01-16T07:20:19;98900.38;;;7.58;61.66
9889;BME280;4983;42.112;24.738;2024-01-16T07:22:44;98908.44;;;7.56;62.56
9889;BME280;4983;42.112;24.738;2024-01-16T07:25:10;98908.94;;;7.52;63.38
9889;BME280;4983;42.112;24.738;2024-01-16T07:27:36;98924.38;;;7.55;62.50
9889;BME280;4983;42.112;24.738;2024-01-16T07:30:04;98919.28;;;7.53;63.42
9889;BME280;4983;42.112;24.738;2024-01-16T07:32:31;98935.16;;;7.60;63.17
9889;BME280;4983;42.112;24.738;2024-01-16T07:34:57;98943.03;;;7.60;62.75
9889;BME280;4983;42.112;24.738;2024-01-16T07:37:22;98951.75;;;7.60;62.52
9889;BME280;4983;42.112;24.738;2024-01-16T07:39:48;98959.28;;;7.63;61.93
9889;BME280;4983;42.112;24.738;2024-01-16T07:42:13;98973.94;;;7.58;61.36
9889;BME280;4983;42.112;24.738;2024-01-16T07:44:39;98979.19;;;7.58;61.61
9889;BME280;4983;42.112;24.738;2024-01-16T07:47:05;98984.41;;;7.66;60.33
9889;BME280;4983;42.112;24.738;2024-01-16T07:49:30;98992.63;;;7.63;60.14
9889;BME280;4983;42.112;24.738;2024-01-16T07:51:56;98994.44;;;7.54;61.39
9889;BME280;4983;42.112;24.738;2024-01-16T07:54:21;98996.91;;;7.56;61.11
9889;BME280;4983;42.112;24.738;2024-01-16T07:56:47;99012.81;;;7.62;60.56
9889;BME280;4983;42.112;24.738;2024-01-16T07:59:12;99020.88;;;7.61;60.16
9889;BME280;4983;42.112;24.738;2024-01-16T08:01:39;99027.09;;;7.60;59.55
9889;BME280;4983;42.112;24.738;2024-01-16T08:04:04;99036.16;;;7.57;59.48
9889;BME280;4983;42.112;24.738;2024-01-16T08:06:30;99043.19;;;7.57;60.26
9889;BME280;4983;42.112;24.738;2024-01-16T08:08:55;99046.81;;;7.56;60.20
9889;BME280;4983;42.112;24.738;2024-01-16T08:11:21;99059.63;;;7.59;59.25
9889;BME280;4983;42.112;24.738;2024-01-16T08:13:47;99065.84;;;7.66;59.33
9889;BME280;4983;42.112;24.738;2024-01-16T08:16:12;99062.00;;;7.76;58.05
9889;BME280;4983;42.112;24.738;2024-01-16T08:18:38;99056.56;;;7.86;58.37
9889;BME280;4983;42.112;24.738;2024-01-16T08:21:03;99056.53;;;7.94;58.87
9889;BME280;4983;42.112;24.738;2024-01-16T08:23:29;99054.03;;;8.00;59.63
9889;BME280;4983;42.112;24.738;2024-01-16T08:25:54;99057.31;;;8.02;59.37
9889;BME280;4983;42.112;24.738;2024-01-16T08:28:20;99074.53;;;8.05;59.46
9889;BME280;4983;42.112;24.738;2024-01-16T08:30:46;99069.94;;;8.07;58.59
9889;BME280;4983;42.112;24.738;2024-01-16T08:33:12;99074.25;;;8.00;58.71
9889;BME280;4983;42.112;24.738;2024-01-16T08:35:37;99069.00;;;8.00;57.32
9889;BME280;4983;42.112;24.738;2024-01-16T08:38:03;99083.44;;;7.96;58.37
9889;BME280;4983;42.112;24.738;2024-01-16T08:40:30;99086.84;;;8.04;57.87
9889;BME280;4983;42.112;24.738;2024-01-16T08:42:55;99086.41;;;8.01;57.91
9889;BME280;4983;42.112;24.738;2024-01-16T08:45:21;99095.41;;;8.06;57.06
9889;BME280;4983;42.112;24.738;2024-01-16T08:47:47;99108.03;;;8.11;56.35
9889;BME280;4983;42.112;24.738;2024-01-16T08:50:13;99119.53;;;8.10;56.50
9889;BME280;4983;42.112;24.738;2024-01-16T08:52:39;99130.38;;;8.15;55.88
9889;BME280;4983;42.112;24.738;2024-01-16T08:55:04;99143.81;;;8.20;55.66
9889;BME280;4983;42.112;24.738;2024-01-16T08:57:30;99144.00;;;8.26;55.29
9889;BME280;4983;42.112;24.738;2024-01-16T08:59:55;99136.44;;;8.23;54.78
9889;BME280;4983;42.112;24.738;2024-01-16T09:02:21;99137.88;;;8.34;55.26
9889;BME280;4983;42.112;24.738;2024-01-16T09:04:47;99150.94;;;8.50;55.39
9889;BME280;4983;42.112;24.738;2024-01-16T09:07:18;99144.03;;;8.49;53.89
9889;BME280;4983;42.112;24.738;2024-01-16T09:09:44;99148.16;;;8.51;52.64
9889;BME280;4983;42.112;24.738;2024-01-16T09:12:09;99139.59;;;8.49;53.00
9889;BME280;4983;42.112;24.738;2024-01-16T09:14:35;99148.38;;;8.64;52.95
9889;BME280;4983;42.112;24.738;2024-01-16T09:17:01;99138.00;;;8.71;52.39
9889;BME280;4983;42.112;24.738;2024-01-16T09:19:26;99149.91;;;8.81;52.13
9889;BME280;4983;42.112;24.738;2024-01-16T09:21:52;99150.69;;;8.90;51.90
9889;BME280;4983;42.112;24.738;2024-01-16T09:24:17;99155.69;;;8.77;50.38
9889;BME280;4983;42.112;24.738;2024-01-16T09:26:44;99148.25;;;8.58;49.96
9889;BME280;4983;42.112;24.738;2024-01-16T09:29:10;99163.16;;;8.43;49.77
9889;BME280;4983;42.112;24.738;2024-01-16T09:31:35;99155.84;;;8.53;49.92
9889;BME280;4983;42.112;24.738;2024-01-16T09:34:02;99162.25;;;8.81;48.70
9889;BME280;4983;42.112;24.738;2024-01-16T09:36:29;99159.13;;;9.45;46.41
9889;BME280;4983;42.112;24.738;2024-01-16T09:38:54;99156.16;;;10.14;45.44
9889;BME280;4983;42.112;24.738;2024-01-16T09:41:20;99164.25;;;10.63;43.98
9889;BME280;4983;42.112;24.738;2024-01-16T09:43:47;99153.47;;;10.29;43.04
9889;BME280;4983;42.112;24.738;2024-01-16T09:46:15;99173.22;;;9.89;44.59
9889;BME280;4983;42.112;24.738;2024-01-16T09:48:42;99167.28;;;9.73;45.20
9889;BME280;4983;42.112;24.738;2024-01-16T09:51:10;99178.88;;;9.64;44.99
9889;BME280;4983;42.112;24.738;2024-01-16T09:53:40;99181.66;;;9.85;43.15
9889;BME280;4983;42.112;24.738;2024-01-16T09:56:12;99174.72;;;10.06;42.99
9889;BME280;4983;42.112;24.738;2024-01-16T09:58:40;99182.06;;;10.11;44.28
9889;BME280;4983;42.112;24.738;2024-01-16T10:01:06;99165.09;;;9.76;43.87
9889;BME280;4983;42.112;24.738;2024-01-16T10:03:34;99184.88;;;9.58;44.67
9889;BME280;4983;42.112;24.738;2024-01-16T10:06:04;99185.69;;;9.58;44.07
9889;BME280;4983;42.112;24.738;2024-01-16T10:08:31;99195.38;;;9.80;44.09
9889;BME280;4983;42.112;24.738;2024-01-16T10:10:57;99193.19;;;9.98;43.48
9889;BME280;4983;42.112;24.738;2024-01-16T10:13:23;99182.72;;;9.76;42.31
9889;BME280;4983;42.112;24.738;2024-01-16T10:15:49;99202.69;;;9.56;43.29
9889;BME280;4983;42.112;24.738;2024-01-16T10:18:23;99204.91;;;9.44;43.39
9889;BME280;4983;42.112;24.738;2024-01-16T10:20:49;99205.94;;;9.43;43.26
9889;BME280;4983;42.112;24.738;2024-01-16T10:23:22;99211.03;;;9.22;44.22
9889;BME280;4983;42.112;24.738;2024-01-16T10:26:13;99201.31;;;9.23;44.47
9889;BME280;4983;42.112;24.738;2024-01-16T10:28:41;99216.28;;;9.22;44.01
9889;BME280;4983;42.112;24.738;2024-01-16T10:31:12;99226.97;;;8.98;44.36
9889;BME280;4983;42.112;24.738;2024-01-16T10:33:39;99218.97;;;8.91;44.96
9889;BME280;4983;42.112;24.738;2024-01-16T10:36:15;99228.84;;;8.89;44.57
9889;BME280;4983;42.112;24.738;2024-01-16T10:38:45;99217.84;;;8.86;45.20
9889;BME280;4983;42.112;24.738;2024-01-16T10:41:18;99230.28;;;8.92;44.98
9889;BME280;4983;42.112;24.738;2024-01-16T10:43:44;99231.97;;;8.93;45.32
9889;BME280;4983;42.112;24.738;2024-01-16T10:46:14;99237.22;;;8.93;45.99
9889;BME280;4983;42.112;24.738;2024-01-16T10:48:42;99226.69;;;8.93;45.08
9889;BME280;4983;42.112;24.738;2024-01-16T10:51:10;99228.06;;;8.81;45.67
9889;BME280;4983;42.112;24.738;2024-01-16T10:53:41;99244.69;;;8.81;46.30
9889;BME280;4983;42.112;24.738;2024-01-16T10:56:10;99238.59;;;8.81;46.37
9889;BME280;4983;42.112;24.738;2024-01-16T10:58:41;99226.94;;;8.75;46.17
9889;BME280;4983;42.112;24.738;2024-01-16T11:01:11;99245.75;;;8.95;45.09
9889;BME280;4983;42.112;24.738;2024-01-16T11:03:48;99246.69;;;9.02;46.12
9889;BME280;4983;42.112;24.738;2024-01-16T11:06:15;99241.78;;;8.99;44.50
9889;BME280;4983;42.112;24.738;2024-01-16T11:08:42;99245.63;;;8.88;43.83
9889;BME280;4983;42.112;24.738;2024-01-16T11:11:10;99236.97;;;8.80;44.14
9889;BME280;4983;42.112;24.738;2024-01-16T11:13:38;99250.78;;;8.82;44.17
9889;BME280;4983;42.112;24.738;2024-01-16T11:16:05;99242.78;;;8.67;43.47
9889;BME280;4983;42.112;24.738;2024-01-16T11:18:34;99242.09;;;8.73;44.49
9889;BME280;4983;42.112;24.738;2024-01-16T11:21:06;99236.00;;;8.73;44.16
9889;BME280;4983;42.112;24.738;2024-01-16T11:23:32;99241.25;;;8.73;43.50
9889;BME280;4983;42.112;24.738;2024-01-16T11:25:58;99239.63;;;8.72;42.71
9889;BME280;4983;42.112;24.738;2024-01-16T11:28:29;99243.63;;;8.60;42.92
9889;BME280;4983;42.112;24.738;2024-01-16T11:30:54;99249.25;;;8.57;44.34
9889;BME280;4983;42.112;24.738;2024-01-16T11:33:43;99251.50;;;8.60;43.04
9889;BME280;4983;42.112;24.738;2024-01-16T11:36:48;99246.59;;;8.95;41.97
9889;BME280;4983;42.112;24.738;2024-01-16T11:39:18;99247.31;;;9.57;40.94
9889;BME280;4983;42.112;24.738;2024-01-16T11:41:57;99235.63;;;10.11;38.94
9889;BME280;4983;42.112;24.738;2024-01-16T11:44:47;99236.47;;;10.41;38.59
9889;BME280;4983;42.112;24.738;2024-01-16T11:47:19;99248.91;;;10.47;38.13
9889;BME280;4983;42.112;24.738;2024-01-16T11:50:07;99252.19;;;10.63;38.74
9889;BME280;4983;42.112;24.738;2024-01-16T11:52:44;99265.75;;;10.60;36.79
9889;BME280;4983;42.112;24.738;2024-01-16T12:00:45;99256.84;;;10.32;36.84
9889;BME280;4983;42.112;24.738;2024-01-16T12:03:13;99271.03;;;10.46;37.19
9889;BME280;4983;42.112;24.738;2024-01-16T12:05:39;99274.22;;;10.70;36.90
9889;BME280;4983;42.112;24.738;2024-01-16T12:08:04;99265.06;;;10.87;36.96
9889;BME280;4983;42.112;24.738;2024-01-16T12:10:31;99270.19;;;10.89;36.42
9889;BME280;4983;42.112;24.738;2024-01-16T12:13:00;99261.59;;;11.01;36.59
9889;BME280;4983;42.112;24.738;2024-01-16T12:15:26;99282.78;;;10.72;37.21
9889;BME280;4983;42.112;24.738;2024-01-16T12:17:59;99279.66;;;10.83;36.09
9889;BME280;4983;42.112;24.738;2024-01-16T12:20:31;99280.34;;;10.56;36.91
9889;BME280;4983;42.112;24.738;2024-01-16T12:22:59;99281.31;;;10.41;36.12
9889;BME280;4983;42.112;24.738;2024-01-16T12:25:25;99284.25;;;10.60;37.74
9889;BME280;4983;42.112;24.738;2024-01-16T12:27:58;99293.06;;;10.67;37.05
9889;BME280;4983;42.112;24.738;2024-01-16T12:30:29;99281.13;;;10.71;35.94
9889;BME280;4983;42.112;24.738;2024-01-16T12:33:10;99288.47;;;10.90;35.99
9889;BME280;4983;42.112;24.738;2024-01-16T12:35:44;99295.91;;;11.16;36.37
9889;BME280;4983;42.112;24.738;2024-01-16T12:38:12;99290.88;;;11.21;35.69
9889;BME280;4983;42.112;24.738;2024-01-16T12:40:49;99297.19;;;11.20;34.50
9889;BME280;4983;42.112;24.738;2024-01-16T12:43:18;99306.97;;;10.90;36.43
9889;BME280;4983;42.112;24.738;2024-01-16T12:45:44;99318.25;;;10.84;34.96
9889;BME280;4983;42.112;24.738;2024-01-16T12:48:11;99316.91;;;10.88;35.00
9889;BME280;4983;42.112;24.738;2024-01-16T12:50:36;99322.72;;;10.69;35.69
9889;BME280;4983;42.112;24.738;2024-01-16T12:53:07;99332.13;;;10.86;34.89
9889;BME280;4983;42.112;24.738;2024-01-16T12:55:35;99328.28;;;10.89;34.83
9889;BME280;4983;42.112;24.738;2024-01-16T12:58:20;99334.47;;;10.96;36.40
9889;BME280;4983;42.112;24.738;2024-01-16T13:00:49;99343.13;;;10.75;36.13
9889;BME280;4983;42.112;24.738;2024-01-16T13:03:24;99341.41;;;10.82;36.27
9889;BME280;4983;42.112;24.738;2024-01-16T13:05:59;99349.44;;;10.74;35.20
9889;BME280;4983;42.112;24.738;2024-01-16T13:08:26;99351.03;;;10.46;36.13
9889;BME280;4983;42.112;24.738;2024-01-16T13:11:05;99351.53;;;10.27;36.10
9889;BME280;4983;42.112;24.738;2024-01-16T13:13:31;99355.41;;;10.39;36.70
9889;BME280;4983;42.112;24.738;2024-01-16T13:15:58;99364.25;;;10.46;37.25
9889;BME280;4983;42.112;24.738;2024-01-16T13:18:25;99362.78;;;10.44;36.99
9889;BME280;4983;42.112;24.738;2024-01-16T13:20:52;99356.91;;;10.85;37.32
9889;BME280;4983;42.112;24.738;2024-01-16T13:23:19;99373.66;;;10.92;35.96
9889;BME280;4983;42.112;24.738;2024-01-16T13:25:46;99372.91;;;10.98;36.72
9889;BME280;4983;42.112;24.738;2024-01-16T13:28:17;99374.72;;;11.12;34.20